Time;durP1;ratioP1;P1;durP2;ratioP2;P2;SDS_P1;SDS_P2;PMS_P1;PMS_P2;Temp;Humidity;BMP_temperature;BMP_pressure;BME280_temperature;BME280_humidity;BME280_pressure;Samples;Min_cycle;Max_cycle;Signal;HPM_P1;HPM_P2
2022/03/13 00:00:41;;;;;;;0.60;0.60;;;;;;;-3.74;68.37;100243.34;5017519;28;20138;-89
2022/03/13 00:03:10;;;;;;;0.50;0.50;;;;;;;-3.70;68.18;100246.56;5018538;28;20049;-88
2022/03/13 00:05:40;;;;;;;0.80;0.80;;;;;;;-3.65;67.83;100243.56;5018888;28;20527;-89
2022/03/13 00:08:18;;;;;;;0.60;0.60;;;;;;;-3.63;67.35;100237.19;5017947;28;20141;-87
2022/03/13 00:10:55;;;;;;;0.50;0.50;;;;;;;-3.63;67.33;100234.56;5017668;28;20574;-87
2022/03/13 00:13:29;;;;;;;0.50;0.50;;;;;;;-3.61;67.04;100240.56;5018745;28;20064;-87
2022/03/13 00:16:08;;;;;;;0.60;0.60;;;;;;;-3.56;66.85;100233.13;4983947;28;20045;-90
2022/03/13 00:18:41;;;;;;;0.63;0.63;;;;;;;-3.58;66.75;100229.75;5017788;28;20054;-88
2022/03/13 00:21:10;;;;;;;0.60;0.60;;;;;;;-3.54;66.60;100235.63;5000739;28;20049;-89
2022/03/13 00:23:38;;;;;;;0.52;0.52;;;;;;;-3.54;66.61;100225.09;5021552;28;20073;-87
2022/03/13 00:26:05;;;;;;;0.50;0.50;;;;;;;-3.53;66.48;100221.47;5001137;28;20054;-86
2022/03/13 00:28:32;;;;;;;0.68;0.68;;;;;;;-3.54;66.21;100209.25;5003971;28;20041;-89
2022/03/13 00:31:03;;;;;;;0.50;0.50;;;;;;;-3.52;66.46;100223.13;4983894;28;20060;-88
2022/03/13 00:33:30;;;;;;;0.60;0.60;;;;;;;-3.55;66.47;100221.56;5000363;28;20050;-88
2022/03/13 00:35:57;;;;;;;0.60;0.60;;;;;;;-3.46;66.68;100222.66;4984803;28;20468;-88
2022/03/13 00:38:25;;;;;;;0.50;0.50;;;;;;;-3.50;66.33;100216.75;5022165;28;20041;-90
2022/03/13 00:40:55;;;;;;;0.57;0.57;;;;;;;-3.45;66.20;100223.47;5036880;28;20068;-87
2022/03/13 00:43:25;;;;;;;0.70;0.70;;;;;;;-3.46;66.12;100229.75;5038777;28;20053;-87
2022/03/13 00:46:18;;;;;;;0.63;0.63;;;;;;;-3.44;66.14;100236.56;5049093;28;20056;-88
2022/03/13 00:48:46;;;;;;;0.60;0.60;;;;;;;-3.47;65.74;100228.88;5042871;28;20136;-88
2022/03/13 00:51:13;;;;;;;0.55;0.55;;;;;;;-3.42;66.06;100234.63;5012990;28;20049;-85
2022/03/13 00:53:46;;;;;;;0.65;0.65;;;;;;;-3.38;65.64;100232.59;5033416;28;20073;-87
2022/03/13 00:56:14;;;;;;;0.70;0.70;;;;;;;-3.42;66.16;100239.06;5049839;28;20032;-88
2022/03/13 00:58:42;;;;;;;0.60;0.60;;;;;;;-3.46;65.92;100235.84;5051241;28;20624;-88
2022/03/13 01:01:12;;;;;;;0.50;0.50;;;;;;;-3.50;66.06;100224.69;5039668;28;20080;-86
2022/03/13 01:03:40;;;;;;;0.50;0.50;;;;;;;-3.50;66.10;100232.59;5024147;28;20052;-88
2022/03/13 01:06:08;;;;;;;0.57;0.57;;;;;;;-3.49;66.07;100230.81;5040232;28;20049;-88
2022/03/13 01:08:36;;;;;;;0.70;0.70;;;;;;;-3.51;66.02;100223.03;5039965;28;20125;-88
2022/03/13 01:11:04;;;;;;;0.60;0.60;;;;;;;-3.52;66.06;100231.91;5021235;28;20056;-87
2022/03/13 01:13:31;;;;;;;0.80;0.80;;;;;;;-3.51;66.30;100230.94;5018411;28;20087;-89
2022/03/13 01:16:11;;;;;;;0.63;0.63;;;;;;;-3.47;66.07;100225.41;5036624;28;20582;-88
2022/03/13 01:18:39;;;;;;;0.60;0.60;;;;;;;-3.48;66.11;100229.84;5037133;28;20061;-87
2022/03/13 01:21:06;;;;;;;0.57;0.57;;;;;;;-3.49;66.38;100226.38;5039843;28;20050;-88
2022/03/13 01:23:41;;;;;;;0.45;0.45;;;;;;;-3.44;66.18;100233.06;5037785;28;20419;-89
2022/03/13 01:26:24;;;;;;;0.40;0.40;;;;;;;-3.42;66.25;100239.91;5019165;28;20045;-89
2022/03/13 01:28:55;;;;;;;0.60;0.60;;;;;;;-3.41;66.14;100230.19;4990565;28;20555;-88
2022/03/13 01:31:27;;;;;;;0.70;0.70;;;;;;;-3.42;65.92;100229.34;5035835;28;20060;-88
2022/03/13 01:33:56;;;;;;;0.63;0.63;;;;;;;-3.39;65.99;100238.81;5040938;28;20097;-89
2022/03/13 01:36:24;;;;;;;0.50;0.50;;;;;;;-3.34;65.96;100247.19;5017800;28;20531;-88
2022/03/13 01:38:53;;;;;;;0.60;0.60;;;;;;;-3.36;65.80;100238.59;5035057;28;20049;-88
2022/03/13 01:41:21;;;;;;;0.50;0.50;;;;;;;-3.40;65.88;100242.44;5017698;28;20071;-87
2022/03/13 01:43:48;;;;;;;0.47;0.47;;;;;;;-3.47;66.20;100251.78;4986739;28;20136;-86
2022/03/13 01:46:16;;;;;;;0.60;0.60;;;;;;;-3.47;66.17;100249.16;4986996;28;20080;-89
2022/03/13 01:49:03;;;;;;;0.70;0.70;;;;;;;-3.49;66.75;100244.84;5020158;28;20050;-88
2022/03/13 01:51:31;;;;;;;0.70;0.70;;;;;;;-3.49;66.27;100244.03;5038926;28;20056;-89
2022/03/13 01:54:11;;;;;;;0.65;0.65;;;;;;;-3.55;66.28;100244.50;5022706;28;20061;-86
2022/03/13 01:56:41;;;;;;;0.50;0.50;;;;;;;-3.50;66.57;100247.59;5054383;28;20056;-87
2022/03/13 01:59:11;;;;;;;0.57;0.57;;;;;;;-3.49;66.66;100258.06;5054863;28;20076;-88
2022/03/13 02:01:39;;;;;;;0.50;0.50;;;;;;;-3.47;66.57;100255.28;5054862;28;20059;-87
2022/03/13 02:04:12;;;;;;;0.50;0.50;;;;;;;-3.44;66.40;100255.03;5044807;28;20113;-88
2022/03/13 02:06:39;;;;;;;0.60;0.60;;;;;;;-3.40;66.28;100258.25;5038500;28;20081;-88
2022/03/13 02:09:07;;;;;;;0.43;0.43;;;;;;;-3.39;66.37;100259.94;5037539;28;20355;-88
2022/03/13 02:11:40;;;;;;;0.55;0.55;;;;;;;-3.39;66.59;100265.22;5047914;28;20041;-87
2022/03/13 02:14:10;;;;;;;0.63;0.63;;;;;;;-3.43;66.69;100269.06;5041966;28;20072;-88
2022/03/13 02:16:38;;;;;;;0.70;0.70;;;;;;;-3.41;66.76;100275.91;5056453;28;20045;-88
2022/03/13 02:19:06;;;;;;;0.55;0.55;;;;;;;-3.38;66.81;100274.81;5023728;28;20030;-87
2022/03/13 02:21:42;;;;;;;0.60;0.60;;;;;;;-3.43;67.01;100263.81;5049028;28;20627;-89
2022/03/13 02:24:13;;;;;;;0.47;0.47;;;;;;;-3.41;67.07;100267.16;5017399;28;20046;-88
2022/03/13 02:27:05;;;;;;;0.50;0.50;;;;;;;-3.39;67.17;100265.22;5033959;28;20053;-89
2022/03/13 02:29:33;;;;;;;0.60;0.60;;;;;;;-3.44;67.02;100277.94;5033756;28;20053;-89
2022/03/13 02:32:01;;;;;;;0.50;0.50;;;;;;;-3.48;67.14;100266.81;5034507;28;20099;-89
2022/03/13 02:34:28;;;;;;;0.60;0.60;;;;;;;-3.46;67.38;100264.88;5016239;28;20042;-88
2022/03/13 02:36:58;;;;;;;0.50;0.50;;;;;;;-3.47;67.22;100267.63;5035287;28;20107;-88
2022/03/13 02:39:26;;;;;;;0.47;0.47;;;;;;;-3.51;66.85;100257.31;5034670;28;20099;-91
2022/03/13 02:41:54;;;;;;;0.52;0.52;;;;;;;-3.56;66.88;100254.22;5034552;28;20050;-89
2022/03/13 02:44:21;;;;;;;0.60;0.60;;;;;;;-3.56;67.29;100254.22;5034401;28;20424;-89
2022/03/13 02:46:48;;;;;;;0.50;0.50;;;;;;;-3.51;67.36;100259.97;5034754;28;20431;-89
2022/03/13 02:49:18;;;;;;;0.55;0.55;;;;;;;-3.53;67.36;100256.59;5035356;28;20099;-90
2022/03/13 02:51:47;;;;;;;0.60;0.60;;;;;;;-3.55;67.52;100258.53;5035432;28;20068;-91
2022/03/13 02:54:15;;;;;;;0.60;0.60;;;;;;;-3.54;67.43;100259.38;5001188;28;20428;-90
2022/03/13 02:56:43;;;;;;;0.50;0.50;;;;;;;-3.53;67.40;100264.53;5035599;28;20451;-90
2022/03/13 02:59:12;;;;;;;0.57;0.57;;;;;;;-3.57;67.64;100272.81;5034673;28;20072;-90
2022/03/13 03:01:40;;;;;;;0.60;0.60;;;;;;;-3.67;67.54;100271.88;5017196;28;20050;-90
2022/03/13 03:04:08;;;;;;;0.40;0.40;;;;;;;-3.71;67.57;100266.84;5017260;28;20137;-90
2022/03/13 03:06:37;;;;;;;0.52;0.52;;;;;;;-3.75;67.79;100275.13;5034385;28;20112;-87
2022/03/13 03:09:05;;;;;;;0.50;0.50;;;;;;;-3.79;67.97;100281.59;5034497;28;20049;-89
2022/03/13 03:11:33;;;;;;;0.60;0.60;;;;;;;-3.78;68.10;100280.63;5035239;28;20041;-91
2022/03/13 03:14:02;;;;;;;0.50;0.50;;;;;;;-3.77;67.91;100284.97;5035638;28;20470;-91
2022/03/13 03:16:29;;;;;;;0.50;0.50;;;;;;;-3.76;68.25;100284.00;5016851;28;20095;-89
2022/03/13 03:18:57;;;;;;;0.50;0.50;;;;;;;-3.71;68.00;100293.22;5034750;28;20144;-90
2022/03/13 03:21:25;;;;;;;0.50;0.50;;;;;;;-3.71;68.21;100289.75;5034288;28;20045;-90
2022/03/13 03:23:52;;;;;;;0.50;0.50;;;;;;;-3.77;68.00;100291.09;5034304;28;20071;-91
2022/03/13 03:26:19;;;;;;;0.60;0.60;;;;;;;-3.90;68.49;100277.16;5016302;28;20096;-89
2022/03/13 03:28:46;;;;;;;0.50;0.50;;;;;;;-3.90;68.56;100286.88;5017061;28;20428;-91
2022/03/13 03:31:14;;;;;;;0.52;0.52;;;;;;;-3.87;68.60;100291.91;5000456;28;20072;-90
2022/03/13 03:33:42;;;;;;;0.50;0.50;;;;;;;-3.92;68.90;100287.84;5034337;28;20136;-89
2022/03/13 03:36:15;;;;;;;0.45;0.45;;;;;;;-3.93;68.94;100294.06;5034343;28;20520;-89
2022/03/13 03:38:42;;;;;;;0.60;0.60;;;;;;;-3.95;69.20;100292.50;5034983;28;20045;-89
2022/03/13 03:41:09;;;;;;;0.70;0.70;;;;;;;-3.99;69.17;100285.81;5033658;28;20151;-88
2022/03/13 03:43:37;;;;;;;0.50;0.50;;;;;;;-3.99;69.10;100281.38;5034548;28;20060;-90
2022/03/13 03:46:04;;;;;;;0.60;0.60;;;;;;;-3.97;69.23;100286.53;5035292;28;20053;-91
2022/03/13 03:48:31;;;;;;;0.60;0.60;;;;;;;-4.04;69.52;100291.44;5034980;28;20054;-91
2022/03/13 03:50:59;;;;;;;0.50;0.50;;;;;;;-4.08;69.40;100287.34;5035572;28;20054;-89
2022/03/13 03:53:26;;;;;;;0.60;0.60;;;;;;;-4.10;69.37;100291.06;5035223;28;20057;-90
2022/03/13 03:55:54;;;;;;;0.60;0.60;;;;;;;-4.13;69.75;100284.22;5018821;28;20486;-90
2022/03/13 03:58:21;;;;;;;0.40;0.40;;;;;;;-4.18;69.81;100289.88;5037726;28;20091;-88
2022/03/13 04:00:48;;;;;;;0.43;0.43;;;;;;;-4.22;69.73;100282.31;5039425;28;20053;-89
2022/03/13 04:03:16;;;;;;;0.60;0.60;;;;;;;-4.19;69.74;100287.34;5019996;28;20056;-90
2022/03/13 04:05:46;;;;;;;0.70;0.70;;;;;;;-4.23;69.93;100288.53;5037693;28;20060;-91
2022/03/13 04:08:15;;;;;;;0.60;0.60;;;;;;;-4.25;70.09;100291.31;5036983;28;20050;-90
2022/03/13 04:10:42;;;;;;;0.50;0.50;;;;;;;-4.25;69.66;100287.84;5036412;28;20107;-90
2022/03/13 04:13:10;;;;;;;0.52;0.52;;;;;;;-4.34;69.78;100288.53;5018529;28;20053;-91
2022/03/13 04:15:37;;;;;;;0.70;0.70;;;;;;;-4.32;69.82;100289.25;5010760;28;20056;-90
2022/03/13 04:18:05;;;;;;;0.70;0.70;;;;;;;-4.40;69.64;100290.69;5044023;28;20075;-90
2022/03/13 04:20:32;;;;;;;0.70;0.70;;;;;;;-4.39;69.58;100289.72;5038665;28;20045;-89
2022/03/13 04:22:59;;;;;;;0.60;0.60;;;;;;;-4.28;69.50;100296.81;5003213;28;20050;-90
2022/03/13 04:25:28;;;;;;;0.60;0.60;;;;;;;-4.22;69.22;100290.22;5038226;28;20072;-89
2022/03/13 04:27:57;;;;;;;0.50;0.50;;;;;;;-4.20;69.23;100286.53;5039094;28;20042;-89
2022/03/13 04:30:25;;;;;;;0.60;0.60;;;;;;;-4.25;69.35;100286.03;5021676;28;20454;-89
2022/03/13 04:32:52;;;;;;;0.60;0.60;;;;;;;-4.30;69.54;100279.41;5043486;28;20064;-90
2022/03/13 04:35:19;;;;;;;0.60;0.60;;;;;;;-4.42;69.52;100275.94;5026556;28;20081;-88
2022/03/13 04:37:47;;;;;;;0.50;0.50;;;;;;;-4.56;69.77;100276.97;5037968;28;20073;-89
2022/03/13 04:40:14;;;;;;;0.40;0.40;;;;;;;-4.55;70.16;100296.28;5046041;28;20137;-90
2022/03/13 04:42:41;;;;;;;0.60;0.60;;;;;;;-4.50;70.06;100284.44;5042026;28;20057;-89
2022/03/13 04:45:08;;;;;;;0.60;0.60;;;;;;;-4.43;69.78;100293.56;5045737;28;20057;-90
2022/03/13 04:47:35;;;;;;;0.60;0.60;;;;;;;-4.33;69.70;100293.66;5013006;28;20451;-90
2022/03/13 04:50:03;;;;;;;0.60;0.60;;;;;;;-4.28;69.27;100283.66;5028020;28;20538;-88
2022/03/13 04:52:30;;;;;;;0.75;0.75;;;;;;;-4.31;69.07;100286.50;5056412;28;20120;-88
2022/03/13 04:54:57;;;;;;;0.70;0.70;;;;;;;-4.33;68.98;100284.94;5038817;28;20048;-87
2022/03/13 04:57:24;;;;;;;0.57;0.57;;;;;;;-4.26;68.98;100288.78;5049776;28;20069;-89
2022/03/13 04:59:52;;;;;;;0.55;0.55;;;;;;;-4.33;68.52;100282.28;5052080;28;20037;-90
2022/03/13 05:02:19;;;;;;;0.60;0.60;;;;;;;-4.32;68.73;100291.91;5032109;28;20045;-88
2022/03/13 05:04:47;;;;;;;0.60;0.60;;;;;;;-4.36;68.53;100275.47;5032268;28;20088;-89
2022/03/13 05:07:18;;;;;;;0.70;0.70;;;;;;;-4.19;68.66;100285.56;5026970;28;20129;-90
2022/03/13 05:09:47;;;;;;;0.52;0.52;;;;;;;-4.07;68.15;100277.66;4993154;28;20053;-90
2022/03/13 05:12:16;;;;;;;0.70;0.70;;;;;;;-4.11;67.95;100292.03;5025151;28;20114;-90
2022/03/13 05:14:46;;;;;;;0.63;0.63;;;;;;;-4.04;67.72;100290.59;4992359;28;20619;-87
2022/03/13 05:17:13;;;;;;;0.60;0.60;;;;;;;-3.95;67.49;100290.72;5006696;28;20136;-88
2022/03/13 05:19:41;;;;;;;0.70;0.70;;;;;;;-3.90;67.26;100289.50;5006683;28;20800;-89
2022/03/13 05:22:09;;;;;;;0.50;0.50;;;;;;;-3.89;66.81;100286.75;4994996;28;20045;-88
2022/03/13 05:24:36;;;;;;;0.50;0.50;;;;;;;-3.80;66.88;100303.66;4984854;28;20050;-89
2022/03/13 05:27:03;;;;;;;0.60;0.60;;;;;;;-3.75;66.81;100296.22;4997799;28;20057;-86
2022/03/13 05:29:32;;;;;;;0.70;0.70;;;;;;;-3.65;66.61;100301.63;4977030;28;20472;-88
2022/03/13 05:31:59;;;;;;;0.45;0.45;;;;;;;-3.69;66.47;100298.38;5012456;28;20145;-89
2022/03/13 05:34:26;;;;;;;0.60;0.60;;;;;;;-3.66;66.11;100311.34;4992480;28;20081;-88
2022/03/13 05:36:53;;;;;;;0.50;0.50;;;;;;;-3.77;66.16;100306.06;4992341;28;20146;-86
2022/03/13 05:39:21;;;;;;;0.50;0.50;;;;;;;-3.78;66.08;100305.22;5020909;28;20096;-88
2022/03/13 05:41:49;;;;;;;0.52;0.52;;;;;;;-3.81;66.27;100313.38;5024021;28;20053;-87
2022/03/13 05:44:16;;;;;;;0.60;0.60;;;;;;;-3.75;66.31;100320.81;5022019;28;20050;-87
2022/03/13 05:46:50;;;;;;;0.60;0.60;;;;;;;-3.67;66.33;100322.88;5014938;28;20370;-88
2022/03/13 05:49:18;;;;;;;;;;;;;;;-3.77;66.17;100319.28;5001990;28;20078;-87
2022/03/13 05:51:46;;;;;;;0.70;0.70;;;;;;;-3.80;66.55;100325.63;5007316;28;19979;-88
2022/03/13 05:54:13;;;;;;;0.40;0.40;;;;;;;-3.71;66.41;100319.59;5021714;28;20055;-88
2022/03/13 05:56:41;;;;;;;0.65;0.65;;;;;;;-3.73;66.50;100325.97;4999592;28;20050;-89
2022/03/13 05:59:10;;;;;;;0.60;0.60;;;;;;;-3.72;66.66;100319.75;5013460;28;20412;-89
2022/03/13 06:01:38;;;;;;;0.70;0.70;;;;;;;-3.63;66.52;100326.91;5005532;28;20070;-90
2022/03/13 06:04:08;;;;;;;0.60;0.60;;;;;;;-3.67;66.85;100325.50;4977781;28;20066;-88
2022/03/13 06:06:36;;;;;;;0.50;0.50;;;;;;;-3.65;67.47;100331.47;5013182;28;20050;-90
2022/03/13 06:09:06;;;;;;;0.50;0.50;;;;;;;-3.67;67.51;100320.22;4989211;28;20030;-90
2022/03/13 06:11:34;;;;;;;0.45;0.45;;;;;;;-3.69;68.01;100324.78;4989339;28;20054;-90
2022/03/13 06:14:02;;;;;;;0.55;0.55;;;;;;;-3.66;68.05;100336.88;4988478;28;20046;-89
2022/03/13 06:16:29;;;;;;;0.55;0.55;;;;;;;-3.57;68.21;100334.38;5010246;28;20060;-91
2022/03/13 06:18:56;;;;;;;0.50;0.50;;;;;;;-3.47;68.08;100328.34;5019106;28;20141;-92
2022/03/13 06:21:24;;;;;;;0.52;0.52;;;;;;;-3.37;68.06;100337.22;4617017;28;9999860;-85
2022/03/13 06:23:52;;;;;;;0.52;0.52;;;;;;;-3.33;67.69;100322.81;4996752;28;20417;-88
2022/03/13 06:26:22;;;;;;;0.60;0.60;;;;;;;-3.26;67.58;100334.56;5005053;28;20053;-84
2022/03/13 06:28:49;;;;;;;0.70;0.70;;;;;;;-3.21;68.09;100347.41;5000850;28;20042;-84
2022/03/13 06:31:18;;;;;;;0.60;0.60;;;;;;;-3.09;67.84;100343.75;4992201;28;20050;-86
2022/03/13 06:33:45;;;;;;;0.68;0.68;;;;;;;-2.90;67.64;100337.81;4991631;28;20133;-85
2022/03/13 06:36:13;;;;;;;0.70;0.70;;;;;;;-2.95;67.21;100346.13;4974301;28;20058;-83
2022/03/13 06:38:40;;;;;;;0.50;0.50;;;;;;;-2.86;67.45;100347.16;5002885;28;20056;-83
2022/03/13 06:41:07;;;;;;;0.73;0.73;;;;;;;-2.74;67.51;100340.03;4991226;28;20133;-85
2022/03/13 06:43:38;;;;;;;0.60;0.60;;;;;;;-2.66;67.17;100338.47;4966955;28;20556;-85
2022/03/13 06:46:06;;;;;;;0.73;0.73;;;;;;;-2.57;67.13;100336.00;4991664;28;20420;-86
2022/03/13 06:48:36;;;;;;;0.70;0.70;;;;;;;-2.59;66.87;100336.13;5010952;28;20050;-85
2022/03/13 06:51:05;;;;;;;0.60;0.60;;;;;;;-2.69;67.39;100336.03;5007703;28;20100;-85
2022/03/13 06:53:36;;;;;;;0.70;0.70;;;;;;;-2.72;67.20;100344.22;4987662;28;20057;-85
2022/03/13 06:56:04;;;;;;;0.80;0.80;;;;;;;-2.75;67.53;100343.66;5003714;28;20049;-86
2022/03/13 06:58:31;;;;;;;0.60;0.60;;;;;;;-2.83;67.86;100341.66;4958848;28;20104;-85
2022/03/13 07:00:59;;;;;;;0.60;0.60;;;;;;;-2.80;67.41;100343.19;4977768;28;20060;-87
2022/03/13 07:03:27;;;;;;;0.70;0.70;;;;;;;-2.79;67.80;100352.78;5016053;28;20073;-86
2022/03/13 07:05:54;;;;;;;0.70;0.70;;;;;;;-2.84;67.78;100345.25;5016478;28;20082;-88
2022/03/13 07:08:21;;;;;;;0.90;0.90;;;;;;;-2.85;67.92;100338.28;5015070;28;20046;-86
2022/03/13 07:10:50;;;;;;;0.65;0.65;;;;;;;-2.77;67.67;100338.50;5012425;28;20062;-86
2022/03/13 07:13:19;;;;;;;0.73;0.73;;;;;;;-2.67;67.70;100320.06;4980828;28;20053;-87
2022/03/13 07:15:48;;;;;;;0.80;0.80;;;;;;;-2.54;67.24;100317.25;4991372;28;20046;-84
2022/03/13 07:18:21;;;;;;;0.70;0.70;;;;;;;-2.49;66.82;100323.00;5011013;28;20060;-86
2022/03/13 07:20:51;;;;;;;0.60;0.60;;;;;;;-2.45;66.80;100309.38;4973363;28;20053;-85
2022/03/13 07:23:18;;;;;;;0.60;0.60;;;;;;;-2.35;66.70;100313.91;5000895;28;20131;-85
2022/03/13 07:25:49;;;;;;;0.70;0.70;;;;;;;-2.37;66.39;100310.56;4991829;28;20045;-84
2022/03/13 07:28:17;;;;;;;0.60;0.60;;;;;;;-2.27;66.34;100320.22;4996771;28;20082;-84
2022/03/13 07:30:46;;;;;;;0.73;0.73;;;;;;;-2.05;65.55;100311.31;4990148;28;20058;-88
2022/03/13 07:33:14;;;;;;;0.70;0.70;;;;;;;-2.08;65.23;100303.59;4997119;28;20069;-85
2022/03/13 07:35:42;;;;;;;0.68;0.68;;;;;;;-2.02;65.23;100299.63;5007431;28;20074;-86
2022/03/13 07:38:09;;;;;;;0.80;0.80;;;;;;;-1.77;65.11;100299.16;5001867;28;20159;-85
2022/03/13 07:40:39;;;;;;;0.80;0.80;;;;;;;-1.79;64.28;100295.81;4991002;28;20068;-85
2022/03/13 07:43:07;;;;;;;0.90;0.90;;;;;;;-1.85;64.64;100293.72;4979738;28;20057;-85
2022/03/13 07:45:35;;;;;;;0.68;0.68;;;;;;;-1.80;64.22;100288.84;5008954;28;20046;-89
2022/03/13 07:48:05;;;;;;;0.70;0.70;;;;;;;-1.65;63.95;100291.94;5000183;28;20656;-90
2022/03/13 07:50:33;;;;;;;0.75;0.75;;;;;;;-1.52;63.82;100294.34;5024138;28;20088;-86
2022/03/13 07:53:04;;;;;;;0.60;0.60;;;;;;;-1.38;63.25;100301.94;4981068;28;20557;-91
2022/03/13 07:55:32;;;;;;;0.90;0.90;;;;;;;-1.51;62.92;100300.50;5002106;28;20060;-84
2022/03/13 07:57:59;;;;;;;0.90;0.90;;;;;;;-1.54;63.35;100301.63;4999665;28;20087;-88
2022/03/13 08:00:29;;;;;;;0.80;0.80;;;;;;;-1.27;62.94;100300.97;4962963;28;20085;-88
2022/03/13 08:02:56;;;;;;;0.80;0.80;;;;;;;-1.11;62.59;100303.94;4985512;28;20085;-87
2022/03/13 08:05:28;;;;;;;0.80;0.80;;;;;;;-1.14;62.25;100311.31;4994277;28;20149;-88
2022/03/13 08:07:56;;;;;;;0.80;0.80;;;;;;;-1.23;62.18;100298.91;4994235;28;20145;-86
2022/03/13 08:10:25;;;;;;;0.98;0.98;;;;;;;-1.28;62.39;100296.66;4977682;28;20053;-86
2022/03/13 08:12:55;;;;;;;0.75;0.75;;;;;;;-1.39;62.71;100317.97;5003849;28;20520;-87
2022/03/13 08:15:28;;;;;;;0.85;0.85;;;;;;;-1.49;63.23;100317.06;4999824;28;20058;-88
2022/03/13 08:17:56;;;;;;;0.65;0.65;;;;;;;-1.43;63.22;100316.56;5019262;28;20050;-88
2022/03/13 08:20:23;;;;;;;0.80;0.80;;;;;;;-1.44;63.34;100318.38;5009717;28;20057;-89
2022/03/13 08:22:51;;;;;;;0.65;0.65;;;;;;;-1.48;63.73;100319.59;5008785;28;20049;-91
2022/03/13 08:25:20;;;;;;;0.80;0.80;;;;;;;-1.48;64.00;100309.00;5000404;28;20150;-87
2022/03/13 08:27:48;;;;;;;0.60;0.60;;;;;;;-1.43;63.94;100304.16;5016126;28;20103;-90
2022/03/13 08:30:16;;;;;;;0.70;0.70;;;;;;;-1.23;63.72;100301.56;4989201;28;20056;-90
2022/03/13 08:32:43;;;;;;;0.65;0.65;;;;;;;-1.04;63.28;100317.47;5021726;28;20069;-89
2022/03/13 08:35:15;;;;;;;0.90;0.90;;;;;;;-1.00;62.92;100316.22;5002261;28;20128;-89
2022/03/13 08:37:49;;;;;;;0.70;0.70;;;;;;;-1.11;63.26;100305.75;4998194;28;20136;-85
2022/03/13 08:40:17;;;;;;;0.90;0.90;;;;;;;-1.08;62.72;100305.47;4996069;28;20061;-84
2022/03/13 08:42:45;;;;;;;0.90;0.90;;;;;;;-1.09;62.87;100285.22;4999072;28;20421;-86
2022/03/13 08:45:12;;;;;;;0.88;0.88;;;;;;;-1.01;62.61;100293.34;5015063;28;20078;-86
2022/03/13 08:47:40;;;;;;;0.77;0.77;;;;;;;-0.94;62.68;100302.44;5011044;28;20602;-86
2022/03/13 08:50:11;;;;;;;0.80;0.80;;;;;;;-0.74;62.27;100302.41;5017176;28;20046;-88
2022/03/13 08:52:39;;;;;;;0.60;0.60;;;;;;;-0.72;61.79;100298.66;5019234;28;20049;-88
2022/03/13 08:55:08;;;;;;;0.70;0.70;;;;;;;-0.65;62.01;100304.25;4988898;28;20057;-88
2022/03/13 08:57:35;;;;;;;1.00;1.00;;;;;;;-0.67;62.19;100298.22;4999317;28;20053;-87
2022/03/13 09:00:03;;;;;;;1.00;1.00;;;;;;;-0.52;61.62;100299.47;5022216;28;20054;-87
2022/03/13 09:02:31;;;;;;;0.80;0.80;;;;;;;-0.53;61.79;100296.94;5020407;28;20056;-85
2022/03/13 09:04:58;;;;;;;0.77;0.77;;;;;;;-0.56;61.84;100299.91;5006653;28;20029;-89
2022/03/13 09:07:25;;;;;;;0.90;0.90;;;;;;;-0.46;61.80;100308.69;5000353;28;20057;-88
2022/03/13 09:09:53;;;;;;;0.85;0.85;;;;;;;-0.44;61.81;100296.94;5016700;28;20050;-86
2022/03/13 09:12:20;;;;;;;0.73;0.73;;;;;;;-0.44;61.74;100289.00;5018325;28;20050;-87
2022/03/13 09:14:58;;;;;;;0.80;0.80;;;;;;;-0.24;61.68;100281.81;5003177;28;20057;-87
2022/03/13 09:17:27;;;;;;;0.90;0.90;;;;;;;-0.22;61.42;100282.53;4983094;28;20054;-85
2022/03/13 09:19:56;;;;;;;0.90;0.90;;;;;;;-0.20;60.67;100279.75;4999718;28;20053;-84
2022/03/13 09:22:30;;;;;;;0.80;0.80;;;;;;;-0.03;60.65;100280.78;4958730;28;20088;-84
2022/03/13 09:24:59;;;;;;;0.90;0.90;;;;;;;0.06;60.89;100297.69;4994361;28;20050;-84
2022/03/13 09:27:27;;;;;;;0.70;0.70;;;;;;;-0.07;60.66;100284.72;4996305;28;20073;-88
2022/03/13 09:29:55;;;;;;;0.70;0.70;;;;;;;-0.02;60.70;100287.78;5013469;28;20053;-90
2022/03/13 09:32:23;;;;;;;0.80;0.80;;;;;;;-0.09;60.75;100274.25;5012572;28;20054;-86
2022/03/13 09:34:54;;;;;;;0.90;0.90;;;;;;;-0.04;60.86;100277.31;4997527;28;20061;-85
2022/03/13 09:37:23;;;;;;;1.00;1.00;;;;;;;0.32;60.38;100264.16;5015746;28;20108;-83
2022/03/13 09:40:13;;;;;;;0.80;0.80;;;;;;;0.37;59.31;100272.50;4994360;28;20370;-84
2022/03/13 09:42:42;;;;;;;0.90;0.90;;;;;;;0.31;59.23;100275.78;5008882;28;20148;-86
2022/03/13 09:45:13;;;;;;;0.90;0.90;;;;;;;0.38;59.35;100274.22;4977353;28;20109;-87
2022/03/13 09:47:41;;;;;;;0.90;0.90;;;;;;;0.28;59.45;100268.09;4998183;28;20144;-87
2022/03/13 09:50:12;;;;;;;0.90;0.90;;;;;;;0.11;59.82;100267.06;5007504;28;20053;-85
2022/03/13 09:52:42;;;;;;;0.90;0.90;;;;;;;0.10;59.94;100264.53;4976592;28;20535;-85
2022/03/13 09:55:11;;;;;;;0.80;0.80;;;;;;;0.20;59.55;100275.94;5008071;28;20116;-86
2022/03/13 09:57:41;;;;;;;0.98;0.98;;;;;;;0.43;59.67;100266.63;4994230;28;20046;-85
2022/03/13 10:00:17;;;;;;;0.80;0.80;;;;;;;0.74;58.25;100266.31;5008399;28;20141;-85
2022/03/13 10:02:48;;;;;;;0.98;0.98;;;;;;;0.70;58.14;100256.13;4999198;28;20074;-84
2022/03/13 10:05:17;;;;;;;0.90;0.90;;;;;;;0.68;58.41;100266.88;5003347;28;20058;-87
2022/03/13 10:07:59;;;;;;;0.90;0.90;;;;;;;0.63;58.36;100261.19;4977293;28;20050;-85
2022/03/13 10:10:39;;;;;;;0.90;0.90;;;;;;;0.74;58.24;100258.31;4954698;28;20093;-86
2022/03/13 10:13:09;;;;;;;0.80;0.80;;;;;;;0.75;58.13;100259.16;5004875;28;20065;-87
2022/03/13 10:15:46;;;;;;;0.90;0.90;;;;;;;0.52;58.81;100258.75;4982530;28;20551;-87
2022/03/13 10:18:20;;;;;;;1.00;1.00;;;;;;;0.57;58.67;100264.44;5001352;28;20047;-86
2022/03/13 10:20:49;;;;;;;0.88;0.88;;;;;;;0.53;58.67;100250.63;5005651;28;20535;-87
2022/03/13 10:23:51;;;;;;;0.90;0.90;;;;;;;0.58;58.47;100247.50;4987952;28;20042;-87
2022/03/13 10:26:32;;;;;;;0.80;0.80;;;;;;;0.59;58.53;100234.09;5004680;28;20148;-85
2022/03/13 10:29:32;;;;;;;1.00;1.00;;;;;;;1.03;57.79;100236.81;4976741;28;20054;-87
2022/03/13 10:32:19;;;;;;;1.00;1.00;;;;;;;1.10;57.11;100221.09;4971319;28;20054;-87
2022/03/13 10:35:01;;;;;;;0.70;0.70;;;;;;;1.16;57.12;100217.00;5012305;28;20117;-88
2022/03/13 10:37:34;;;;;;;0.90;0.90;;;;;;;1.15;57.73;100212.69;5011677;28;20050;-87
2022/03/13 10:40:21;;;;;;;0.90;0.90;;;;;;;1.39;56.54;100212.00;4999104;28;20404;-87
2022/03/13 10:42:54;;;;;;;0.90;0.90;;;;;;;1.98;55.51;100212.22;5009030;28;20054;-89
2022/03/13 10:45:39;;;;;;;1.00;1.00;;;;;;;2.91;53.69;100218.31;5013032;28;20050;-86
2022/03/13 10:48:22;;;;;;;;;;;;;;;2.99;52.82;100215.63;5007065;28;20054;-87
2022/03/13 10:50:51;;;;;;;1.00;1.00;;;;;;;3.03;52.18;100216.13;4983246;28;19949;-89
2022/03/13 10:53:20;;;;;;;1.42;1.33;;;;;;;4.30;49.92;100210.03;4999647;28;20473;-87
2022/03/13 10:56:11;;;;;;;1.50;1.40;;;;;;;5.92;46.32;100208.06;5020311;28;20092;-88
2022/03/13 10:58:42;;;;;;;1.02;1.02;;;;;;;6.09;44.58;100195.34;5020340;28;20136;-89
2022/03/13 11:01:11;;;;;;;1.50;1.40;;;;;;;5.65;45.51;100198.81;5003568;28;20042;-88
2022/03/13 11:03:57;;;;;;;1.10;1.10;;;;;;;5.45;46.37;100192.34;4994014;28;20062;-86
2022/03/13 11:06:26;;;;;;;1.00;1.00;;;;;;;6.36;44.02;100180.44;5025841;28;20050;-86
2022/03/13 11:08:55;;;;;;;1.50;1.40;;;;;;;5.97;45.03;100192.28;5026601;28;20049;-87
2022/03/13 11:11:23;;;;;;;1.40;1.30;;;;;;;7.40;42.40;100187.22;4969909;28;20051;-86
2022/03/13 11:13:54;;;;;;;0.90;0.90;;;;;;;6.54;42.62;100179.19;5012516;28;20066;-86
2022/03/13 11:16:29;;;;;;;0.95;0.95;;;;;;;5.15;45.53;100181.56;5021001;28;20081;-85
2022/03/13 11:19:04;;;;;;;1.17;1.17;;;;;;;5.28;45.84;100188.97;5008383;28;20050;-87
2022/03/13 11:21:32;;;;;;;1.00;1.00;;;;;;;4.44;47.19;100194.25;5004585;28;20455;-88
2022/03/13 11:24:03;;;;;;;0.80;0.80;;;;;;;4.03;48.26;100192.63;5018579;28;20081;-88
2022/03/13 11:26:31;;;;;;;0.85;0.85;;;;;;;3.56;49.37;100195.25;5011640;28;20073;-85
2022/03/13 11:28:58;;;;;;;0.90;0.90;;;;;;;3.39;49.91;100197.97;5006944;28;20054;-86
2022/03/13 11:31:28;;;;;;;0.80;0.80;;;;;;;3.85;48.95;100197.38;5005933;28;20075;-86
2022/03/13 11:34:20;;;;;;;0.80;0.80;;;;;;;3.33;49.70;100195.13;5017738;28;20109;-86
2022/03/13 11:36:51;;;;;;;0.90;0.90;;;;;;;2.95;50.67;100192.97;5012537;28;20129;-87
2022/03/13 11:39:30;;;;;;;0.73;0.73;;;;;;;2.75;51.35;100191.59;5016560;28;20116;-86